createdAt,value
2023-04-02T00:00:16.683Z,189.47
2023-04-02T00:01:16.666Z,190.54
2023-04-02T00:02:16.702Z,189.49
2023-04-02T00:03:16.715Z,189.78
2023-04-02T00:04:16.793Z,190.18
2023-04-02T00:05:16.754Z,189.43
2023-04-02T00:06:16.692Z,190.04
2023-04-02T00:07:16.690Z,190.84
2023-04-02T00:08:16.748Z,189.65
2023-04-02T00:09:16.722Z,188.62
2023-04-02T00:10:16.723Z,188.13
2023-04-02T00:11:16.731Z,187.95
2023-04-02T00:12:16.737Z,188.44
2023-04-02T00:13:16.763Z,191.81
2023-04-02T00:14:16.789Z,189.94
2023-04-02T00:15:16.783Z,189.44
2023-04-02T00:16:16.842Z,189.92
2023-04-02T00:17:16.810Z,189.01
2023-04-02T00:18:16.818Z,188.23
2023-04-02T00:19:16.783Z,190.48
2023-04-02T00:20:16.772Z,189.69
2023-04-02T00:21:16.782Z,189.62
2023-04-02T00:22:16.822Z,190.86
2023-04-02T00:23:16.808Z,191.51
2023-04-02T00:24:16.824Z,191.78
2023-04-02T00:25:16.808Z,191.24
2023-04-02T00:26:16.813Z,189.62
2023-04-02T00:27:16.833Z,188.27
2023-04-02T00:28:16.864Z,190.71
2023-04-02T00:29:16.830Z,191.08
2023-04-02T00:30:16.826Z,190.08
2023-04-02T00:31:16.821Z,187.17
2023-04-02T00:32:16.872Z,189.37
2023-04-02T00:33:16.840Z,188.20
2023-04-02T00:34:16.851Z,186.17
2023-04-02T00:35:16.856Z,186.23
2023-04-02T00:36:16.905Z,187.36
2023-04-02T00:37:16.881Z,186.32
2023-04-02T00:38:16.880Z,187.61
2023-04-02T00:39:16.912Z,188.26
2023-04-02T00:40:16.914Z,185.05
2023-04-02T00:41:16.951Z,186.59
2023-04-02T00:42:16.936Z,187.15
2023-04-02T00:43:16.967Z,187.13
2023-04-02T00:44:16.970Z,186.89
2023-04-02T00:45:16.961Z,184.47
2023-04-02T00:46:17.037Z,185.07
2023-04-02T00:47:17.005Z,186.18
2023-04-02T00:48:16.995Z,187.24
2023-04-02T00:49:17.015Z,182.93
2023-04-02T00:50:17.022Z,184.43
2023-04-02T00:51:17.037Z,183.54
2023-04-02T00:52:17.040Z,184.64
2023-04-02T00:53:17.070Z,184.65
2023-04-02T00:54:17.092Z,183.46
2023-04-02T00:55:17.083Z,183.88
2023-04-02T00:56:17.098Z,184.30
2023-04-02T00:57:17.100Z,184.37
2023-04-02T00:58:17.123Z,183.12
2023-04-02T00:59:17.186Z,183.47
2023-04-02T01:00:17.152Z,184.05
2023-04-02T01:01:17.227Z,182.77
2023-04-02T01:02:17.210Z,182.12
2023-04-02T01:03:17.292Z,183.89
2023-04-02T01:04:17.251Z,184.00
2023-04-02T01:05:17.195Z,184.67
2023-04-02T01:06:17.204Z,186.19
2023-04-02T01:07:17.213Z,185.61
2023-04-02T01:08:17.217Z,186.30
2023-04-02T01:09:17.219Z,185.43
2023-04-02T01:10:17.249Z,184.93
2023-04-02T01:11:17.248Z,187.04
2023-04-02T01:12:17.230Z,185.55
2023-04-02T01:13:17.255Z,184.70
2023-04-02T01:14:17.267Z,185.37
2023-04-02T01:15:17.289Z,187.21
2023-04-02T01:16:17.352Z,185.27
2023-04-02T01:17:17.336Z,185.80
2023-04-02T01:18:17.310Z,186.08
2023-04-02T01:19:17.336Z,184.78
2023-04-02T01:20:17.330Z,183.76
2023-04-02T01:21:17.401Z,183.67
2023-04-02T01:22:17.368Z,184.98
2023-04-02T01:23:17.380Z,184.24
2023-04-02T01:24:17.409Z,183.86
2023-04-02T01:25:17.401Z,182.51
2023-04-02T01:26:17.409Z,185.21
2023-04-02T01:27:17.480Z,184.49
2023-04-02T01:28:17.445Z,184.91
2023-04-02T01:29:17.470Z,182.01
2023-04-02T01:30:17.471Z,184.03
2023-04-02T01:31:17.538Z,182.41
2023-04-02T01:32:17.487Z,182.68
2023-04-02T01:33:17.536Z,181.43
2023-04-02T01:34:17.556Z,182.74
2023-04-02T01:35:17.524Z,181.68
2023-04-02T01:36:17.530Z,181.79
2023-04-02T01:37:17.416Z,182.03
2023-04-02T01:38:17.387Z,182.19
2023-04-02T01:39:17.338Z,182.12
2023-04-02T01:40:17.286Z,181.99
2023-04-02T01:41:17.228Z,183.55
2023-04-02T01:42:17.185Z,182.33
2023-04-02T01:43:17.166Z,182.10
2023-04-02T01:44:17.095Z,179.61
2023-04-02T01:45:17.058Z,180.86
2023-04-02T01:46:17.148Z,183.12
2023-04-02T01:47:17.096Z,181.12
2023-04-02T01:48:17.108Z,182.68
2023-04-02T01:49:17.115Z,181.20
2023-04-02T01:50:17.139Z,178.87
2023-04-02T01:51:17.145Z,179.44
2023-04-02T01:52:17.161Z,182.27
2023-04-02T01:53:17.158Z,181.80
2023-04-02T01:54:17.194Z,182.14
2023-04-02T01:55:17.199Z,180.76
2023-04-02T01:56:17.233Z,180.26
2023-04-02T01:57:17.247Z,181.34
2023-04-02T01:58:17.278Z,181.25
2023-04-02T01:59:17.257Z,181.45
2023-04-02T02:00:17.272Z,181.75
2023-04-02T02:01:17.370Z,179.37
2023-04-02T02:02:17.379Z,179.92
2023-04-02T02:03:17.342Z,180.89
2023-04-02T02:04:17.316Z,182.94
2023-04-02T02:05:17.349Z,182.01
2023-04-02T02:06:17.352Z,182.89
2023-04-02T02:07:17.352Z,182.42
2023-04-02T02:08:17.368Z,181.28
2023-04-02T02:09:17.385Z,181.01
2023-04-02T02:10:17.445Z,181.64
2023-04-02T02:11:17.434Z,181.96
2023-04-02T02:12:17.435Z,181.93
2023-04-02T02:13:17.458Z,181.78
2023-04-02T02:14:17.468Z,182.65
2023-04-02T02:15:17.474Z,181.95
2023-04-02T02:16:17.583Z,182.68
2023-04-02T02:17:17.511Z,183.78
2023-04-02T02:18:17.537Z,180.83
2023-04-02T02:19:17.543Z,181.54
2023-04-02T02:20:17.549Z,182.57
2023-04-02T02:21:17.566Z,181.72
2023-04-02T02:22:17.586Z,184.14
2023-04-02T02:23:17.620Z,183.94
2023-04-02T02:24:17.623Z,182.87
2023-04-02T02:25:17.629Z,182.53
2023-04-02T02:26:17.650Z,182.63
2023-04-02T02:27:17.663Z,183.38
2023-04-02T02:28:17.670Z,183.11
2023-04-02T02:29:17.698Z,184.27
2023-04-02T02:30:17.700Z,184.35
2023-04-02T02:31:17.741Z,184.37
2023-04-02T02:32:17.761Z,183.48
2023-04-02T02:33:17.769Z,183.57
2023-04-02T02:34:17.771Z,183.20
2023-04-02T02:35:17.806Z,183.56
2023-04-02T02:36:17.802Z,183.87
2023-04-02T02:37:17.804Z,183.19
2023-04-02T02:38:17.816Z,184.33
2023-04-02T02:39:17.840Z,183.45
2023-04-02T02:40:17.885Z,183.17
2023-04-02T02:41:17.869Z,181.68
2023-04-02T02:42:17.906Z,183.88
2023-04-02T02:43:17.895Z,184.53
2023-04-02T02:44:17.937Z,185.74
2023-04-02T02:45:17.936Z,184.23
2023-04-02T02:46:18.018Z,185.83
2023-04-02T02:47:17.987Z,185.32
2023-04-02T02:48:18.007Z,185.82
2023-04-02T02:49:18.003Z,183.99
2023-04-02T02:50:18.035Z,186.56
2023-04-02T02:51:18.145Z,185.14
2023-04-02T02:52:18.062Z,184.84
2023-04-02T02:53:18.655Z,185.92
2023-04-02T02:54:18.131Z,184.67
2023-04-02T02:55:18.114Z,185.05
2023-04-02T02:56:18.114Z,186.76
2023-04-02T02:57:18.182Z,185.97
2023-04-02T02:58:18.159Z,185.65
2023-04-02T02:59:18.163Z,185.67
2023-04-02T03:00:18.329Z,186.71
2023-04-02T03:01:18.245Z,185.03
2023-04-02T03:02:18.239Z,186.62
2023-04-02T03:03:18.331Z,187.59
2023-04-02T03:04:18.319Z,187.48
2023-04-02T03:05:18.282Z,187.59
2023-04-02T03:06:18.291Z,186.12
2023-04-02T03:07:18.302Z,187.55
2023-04-02T03:08:18.327Z,188.83
2023-04-02T03:09:18.349Z,189.79
2023-04-02T03:10:18.375Z,188.27
2023-04-02T03:11:18.365Z,190.12
2023-04-02T03:12:18.392Z,187.84
2023-04-02T03:13:18.408Z,189.36
2023-04-02T03:14:18.421Z,188.28
2023-04-02T03:15:18.441Z,190.73
2023-04-02T03:16:18.551Z,188.28
2023-04-02T03:17:18.497Z,188.21
2023-04-02T03:18:18.512Z,187.99
2023-04-02T03:19:18.557Z,188.99
2023-04-02T03:20:18.552Z,189.24
2023-04-02T03:21:18.577Z,188.78
2023-04-02T03:22:18.594Z,189.78
2023-04-02T03:23:20.420Z,188.71
2023-04-02T03:24:18.712Z,191.75
2023-04-02T03:25:18.626Z,190.13
2023-04-02T03:26:18.670Z,189.55
2023-04-02T03:27:18.615Z,189.69
2023-04-02T03:28:18.579Z,189.59
2023-04-02T03:29:18.536Z,187.46
2023-04-02T03:30:18.517Z,188.02
2023-04-02T03:31:18.491Z,188.26
2023-04-02T03:32:18.443Z,188.34
2023-04-02T03:33:18.366Z,187.73
2023-04-02T03:34:18.450Z,186.20
2023-04-02T03:35:18.286Z,184.96
2023-04-02T03:36:18.307Z,186.78
2023-04-02T03:37:18.264Z,185.32
2023-04-02T03:38:18.291Z,186.30
2023-04-02T03:39:18.299Z,185.67
2023-04-02T03:40:18.341Z,185.02
2023-04-02T03:41:18.341Z,184.39
2023-04-02T03:42:18.359Z,182.85
2023-04-02T03:43:18.368Z,183.87
2023-04-02T03:44:18.390Z,182.42
2023-04-02T03:45:18.422Z,183.53
2023-04-02T03:46:18.488Z,185.44
2023-04-02T03:47:18.444Z,183.64
2023-04-02T03:48:18.465Z,182.65
2023-04-02T03:49:18.480Z,183.12
2023-04-02T03:50:18.508Z,184.26
2023-04-02T03:51:18.543Z,183.10
2023-04-02T03:52:18.603Z,181.67
2023-04-02T03:53:18.547Z,184.10
2023-04-02T03:54:18.559Z,183.03
2023-04-02T03:55:18.577Z,181.46
2023-04-02T03:56:18.589Z,183.32
2023-04-02T03:57:18.611Z,181.12
2023-04-02T03:58:18.611Z,181.27
2023-04-02T03:59:18.635Z,181.87
2023-04-02T04:00:18.666Z,180.34
2023-04-02T04:01:18.673Z,181.11
2023-04-02T04:02:18.733Z,181.41
2023-04-02T04:03:18.723Z,181.29
2023-04-02T04:04:18.718Z,182.55
2023-04-02T04:05:18.758Z,180.44
2023-04-02T04:06:20.156Z,180.50
2023-04-02T04:07:18.690Z,180.56
2023-04-02T04:08:18.651Z,180.70
2023-04-02T04:09:18.620Z,179.31
2023-04-02T04:10:18.561Z,179.29
2023-04-02T04:11:18.561Z,181.72
2023-04-02T04:12:18.477Z,178.58
2023-04-02T04:13:18.427Z,176.47
2023-04-02T04:14:18.392Z,177.46
2023-04-02T04:15:18.361Z,177.54
2023-04-02T04:16:18.331Z,177.70
2023-04-02T04:17:18.252Z,177.74
2023-04-02T04:18:18.222Z,177.77
2023-04-02T04:19:18.241Z,176.92
2023-04-02T04:20:18.137Z,176.96
2023-04-02T04:21:18.122Z,177.02
2023-04-02T04:22:18.057Z,178.96
2023-04-02T04:23:18.005Z,177.41
2023-04-02T04:24:17.978Z,177.01
2023-04-02T04:25:17.944Z,178.03
2023-04-02T04:26:17.978Z,177.59
2023-04-02T04:27:17.995Z,175.16
2023-04-02T04:28:17.994Z,174.44
2023-04-02T04:29:18.014Z,175.93
2023-04-02T04:30:18.040Z,174.78
2023-04-02T04:31:18.160Z,174.47
2023-04-02T04:32:18.252Z,177.76
2023-04-02T04:33:18.085Z,173.32
2023-04-02T04:34:18.103Z,174.67
2023-04-02T04:35:18.121Z,174.07
2023-04-02T04:36:18.171Z,175.07
2023-04-02T04:37:18.153Z,174.70
2023-04-02T04:38:18.159Z,173.94
2023-04-02T04:39:18.189Z,172.32
2023-04-02T04:40:18.256Z,173.50
2023-04-02T04:41:18.253Z,171.87
2023-04-02T04:42:18.253Z,173.93
2023-04-02T04:43:18.249Z,174.29
2023-04-02T04:44:18.282Z,174.51
2023-04-02T04:45:18.300Z,174.01
2023-04-02T04:46:18.453Z,174.67
2023-04-02T04:47:18.320Z,173.12
2023-04-02T04:48:18.320Z,172.96
2023-04-02T04:49:18.338Z,174.70
2023-04-02T04:50:18.358Z,173.61
2023-04-02T04:51:18.380Z,173.27
2023-04-02T04:52:18.342Z,173.40
2023-04-02T04:53:18.291Z,173.80
2023-04-02T04:54:18.265Z,174.33
2023-04-02T04:55:18.278Z,175.16
2023-04-02T04:56:19.562Z,174.39
2023-04-02T04:57:18.184Z,176.78
2023-04-02T04:58:18.086Z,173.89
2023-04-02T04:59:18.062Z,174.23
2023-04-02T05:00:18.011Z,171.53
2023-04-02T05:01:17.981Z,171.74
2023-04-02T05:02:17.953Z,174.90
2023-04-02T05:03:17.981Z,174.83
2023-04-02T05:04:17.970Z,173.00
2023-04-02T05:05:17.981Z,173.42
2023-04-02T05:06:17.977Z,173.98
2023-04-02T05:07:18.013Z,174.33
2023-04-02T05:08:18.007Z,175.67
2023-04-02T05:09:18.030Z,174.66
2023-04-02T05:10:18.051Z,174.78
2023-04-02T05:11:18.070Z,174.42
2023-04-02T05:12:18.083Z,176.07
2023-04-02T05:13:18.114Z,176.09
2023-04-02T05:14:18.092Z,176.01
2023-04-02T05:15:18.071Z,176.11
2023-04-02T05:16:18.132Z,176.47
2023-04-02T05:17:17.979Z,176.76
2023-04-02T05:18:17.945Z,176.59
2023-04-02T05:19:17.884Z,175.40
2023-04-02T05:20:17.870Z,178.25
2023-04-02T05:21:17.817Z,176.79
2023-04-02T05:22:17.774Z,175.46
2023-04-02T05:23:17.728Z,176.91
2023-04-02T05:24:17.657Z,176.20
2023-04-02T05:25:17.655Z,179.49
2023-04-02T05:26:17.671Z,177.11
2023-04-02T05:27:17.685Z,176.82
2023-04-02T05:28:17.694Z,176.25
2023-04-02T05:29:17.725Z,176.54
2023-04-02T05:30:19.153Z,174.96
2023-04-02T05:31:17.701Z,175.09
2023-04-02T05:32:17.639Z,175.47
2023-04-02T05:33:17.590Z,175.92
2023-04-02T05:34:17.528Z,177.21
2023-04-02T05:35:17.499Z,177.67
2023-04-02T05:36:17.483Z,176.10
2023-04-02T05:37:17.415Z,176.80
2023-04-02T05:38:17.376Z,177.01
2023-04-02T05:39:17.316Z,176.90
2023-04-02T05:40:17.243Z,176.80
2023-04-02T05:41:17.255Z,177.30
2023-04-02T05:42:17.271Z,176.32
2023-04-02T05:43:17.292Z,178.29
2023-04-02T05:44:17.292Z,176.79
2023-04-02T05:45:17.332Z,177.94
2023-04-02T05:46:17.455Z,178.35
2023-04-02T05:47:17.359Z,178.02
2023-04-02T05:48:17.377Z,178.98
2023-04-02T05:49:17.364Z,179.80
2023-04-02T05:50:17.388Z,179.53
2023-04-02T05:51:17.422Z,178.28
2023-04-02T05:52:17.406Z,178.34
2023-04-02T05:53:17.430Z,179.22
2023-04-02T05:54:17.441Z,178.99
2023-04-02T05:55:17.469Z,177.43
2023-04-02T05:56:17.484Z,178.96
2023-04-02T05:57:17.526Z,179.44
2023-04-02T05:59:17.442Z,178.73
2023-04-02T06:00:17.409Z,178.96
2023-04-02T06:01:17.371Z,179.69
2023-04-02T06:02:17.337Z,180.44
2023-04-02T06:03:17.330Z,180.14
2023-04-02T06:04:17.274Z,182.36
2023-04-02T06:05:17.187Z,180.59
2023-04-02T06:06:17.107Z,181.21
2023-04-02T06:07:17.076Z,180.82
2023-04-02T06:08:17.009Z,179.72
2023-04-02T06:09:16.951Z,180.54
2023-04-02T06:10:16.916Z,180.00
2023-04-02T06:11:16.870Z,179.91
2023-04-02T06:12:16.813Z,180.07
2023-04-02T06:13:16.819Z,180.39
2023-04-02T06:14:16.729Z,180.92
2023-04-02T06:15:16.658Z,181.28
2023-04-02T06:16:16.717Z,181.71
2023-04-02T06:17:16.590Z,180.06
2023-04-02T06:18:16.523Z,180.32
2023-04-02T06:19:16.475Z,179.74
2023-04-02T06:20:16.432Z,180.58
2023-04-02T06:21:16.385Z,179.35
2023-04-02T06:22:16.359Z,179.92
2023-04-02T06:23:16.289Z,179.50
2023-04-02T06:24:16.259Z,178.95
2023-04-02T06:25:16.223Z,180.32
2023-04-02T06:26:16.153Z,179.57
2023-04-02T06:27:16.164Z,178.67
2023-04-02T06:28:16.258Z,179.33
2023-04-02T06:29:16.157Z,180.11
2023-04-02T06:30:16.162Z,178.63
2023-04-02T06:31:16.284Z,179.24
2023-04-02T06:32:16.209Z,178.29
2023-04-02T06:33:16.273Z,180.21
2023-04-02T06:34:16.220Z,179.41
2023-04-02T06:35:16.233Z,180.92
2023-04-02T06:36:16.257Z,178.39
2023-04-02T06:37:16.264Z,179.81
2023-04-02T06:38:16.258Z,178.56
2023-04-02T06:39:16.280Z,178.56
2023-04-02T06:40:16.311Z,178.69
2023-04-02T06:41:16.338Z,180.28
2023-04-02T06:42:16.291Z,178.97
2023-04-02T06:43:16.331Z,179.93
2023-04-02T06:44:16.326Z,179.58
2023-04-02T06:45:16.329Z,179.81
2023-04-02T06:46:16.358Z,178.73
2023-04-02T06:47:16.369Z,180.05
2023-04-02T06:48:16.371Z,179.91
2023-04-02T06:49:16.363Z,179.08
2023-04-02T06:50:16.373Z,179.95
2023-04-02T06:51:16.396Z,180.81
2023-04-02T06:52:16.418Z,180.47
2023-04-02T06:53:16.411Z,181.00
2023-04-02T06:54:16.412Z,179.48
2023-04-02T06:55:16.416Z,179.62
2023-04-02T06:56:16.308Z,179.87
2023-04-02T06:57:16.327Z,179.61
2023-04-02T06:58:16.217Z,179.40
2023-04-02T06:59:16.191Z,180.35
2023-04-02T07:00:16.157Z,179.31
2023-04-02T07:01:16.100Z,179.14
2023-04-02T07:02:16.041Z,179.40
2023-04-02T07:03:15.988Z,177.76
2023-04-02T07:04:15.998Z,176.28
2023-04-02T07:05:15.950Z,175.24
2023-04-02T07:06:15.911Z,174.39
2023-04-02T07:07:15.913Z,176.68
2023-04-02T07:08:15.950Z,175.26
2023-04-02T07:09:15.948Z,174.58
2023-04-02T07:10:15.949Z,171.09
2023-04-02T07:11:15.956Z,172.17
2023-04-02T07:12:15.956Z,167.93
2023-04-02T07:13:16.002Z,167.46
2023-04-02T07:14:15.995Z,164.56
2023-04-02T07:15:16.000Z,166.01
2023-04-02T07:16:16.033Z,163.84
2023-04-02T07:17:15.996Z,159.89
2023-04-02T07:18:15.999Z,162.35
2023-04-02T07:19:16.005Z,164.46
2023-04-02T07:20:16.022Z,162.90
2023-04-02T07:21:16.005Z,165.14
2023-04-02T07:22:16.007Z,163.90
2023-04-02T07:23:17.107Z,165.62
2023-04-02T07:24:16.041Z,166.19
2023-04-02T07:25:16.046Z,166.58
2023-04-02T07:26:16.048Z,167.07
2023-04-02T07:27:16.044Z,164.77
2023-04-02T07:28:16.081Z,164.41
2023-04-02T07:29:16.049Z,166.27
2023-04-02T07:30:16.048Z,165.70
2023-04-02T07:31:16.089Z,167.08
2023-04-02T07:32:16.092Z,166.51
2023-04-02T07:33:16.113Z,165.72
2023-04-02T07:34:16.056Z,164.18
2023-04-02T07:35:16.089Z,163.56
2023-04-02T07:36:16.793Z,162.97
2023-04-02T07:37:16.085Z,163.37
2023-04-02T07:38:16.079Z,160.93
2023-04-02T07:39:16.111Z,156.69
2023-04-02T07:40:16.094Z,160.41
2023-04-02T07:41:16.105Z,160.08
2023-04-02T07:42:16.066Z,158.56
2023-04-02T07:43:16.081Z,158.78
2023-04-02T07:44:16.101Z,156.60
2023-04-02T07:45:16.112Z,154.54
2023-04-02T07:46:16.147Z,158.07
2023-04-02T07:47:16.072Z,157.77
2023-04-02T07:48:16.073Z,154.62
2023-04-02T07:49:16.067Z,156.57
2023-04-02T07:50:16.044Z,152.94
2023-04-02T07:51:16.042Z,151.05
2023-04-02T07:52:16.041Z,150.27
2023-04-02T07:53:16.049Z,149.31
2023-04-02T07:54:16.028Z,143.73
2023-04-02T07:55:16.021Z,140.09
2023-04-02T07:56:16.017Z,143.83
2023-04-02T07:57:16.058Z,141.74
2023-04-02T07:58:16.017Z,138.19
2023-04-02T07:59:16.024Z,136.61
2023-04-02T08:00:15.999Z,134.06
2023-04-02T08:01:16.027Z,130.07
2023-04-02T08:02:15.985Z,130.10
2023-04-02T08:03:15.977Z,130.21
2023-04-02T08:04:15.968Z,129.79
2023-04-02T08:05:15.805Z,123.29
2023-04-02T08:06:15.779Z,123.56
2023-04-02T08:07:15.700Z,123.34
2023-04-02T08:08:15.838Z,124.00
2023-04-02T08:09:15.604Z,119.32
2023-04-02T08:10:15.571Z,116.84
2023-04-02T08:11:15.530Z,116.10
2023-04-02T08:12:15.446Z,108.19
2023-04-02T08:13:15.414Z,107.86
2023-04-02T08:14:15.344Z,106.11
2023-04-02T08:15:15.322Z,103.12
2023-04-02T08:16:15.280Z,103.13
2023-04-02T08:17:15.214Z,97.87
2023-04-02T08:18:15.210Z,96.34
2023-04-02T08:19:15.172Z,93.67
2023-04-02T08:20:15.176Z,93.36
2023-04-02T08:21:16.307Z,88.14
2023-04-02T08:22:15.114Z,89.82
2023-04-02T08:23:15.087Z,88.22
2023-04-02T08:24:15.088Z,86.76
2023-04-02T08:25:15.068Z,79.42
2023-04-02T08:26:15.016Z,75.92
2023-04-02T08:27:14.989Z,76.89
2023-04-02T08:28:15.063Z,71.77
2023-04-02T08:29:14.960Z,67.80
2023-04-02T08:30:14.970Z,66.79
2023-04-02T08:31:14.933Z,65.41
2023-04-02T08:32:14.861Z,61.04
2023-04-02T08:33:14.827Z,60.69
2023-04-02T08:34:14.825Z,58.33
2023-04-02T08:35:14.791Z,55.14
2023-04-02T08:36:14.778Z,58.27
2023-04-02T08:37:14.733Z,58.46
2023-04-02T08:38:14.690Z,55.82
2023-04-02T08:39:14.678Z,54.67
2023-04-02T08:40:14.631Z,48.46
2023-04-02T08:41:14.592Z,40.73
2023-04-02T08:42:14.560Z,39.58
2023-04-02T08:43:14.517Z,41.17
2023-04-02T08:44:14.476Z,41.43
2023-04-02T08:46:15.439Z,36.23
2023-04-02T08:47:14.336Z,32.00
2023-04-02T08:48:14.337Z,32.14
2023-04-02T08:49:14.222Z,36.44
2023-04-02T08:50:14.168Z,35.81
2023-04-02T08:51:14.104Z,35.16
2023-04-02T08:52:14.086Z,35.37
2023-04-02T08:53:13.977Z,38.93
2023-04-02T08:54:13.947Z,30.39
2023-04-02T08:55:13.872Z,32.70
2023-04-02T08:56:13.815Z,31.53
2023-04-02T08:57:13.795Z,34.00
2023-04-02T08:58:13.778Z,33.89
2023-04-02T08:59:13.641Z,32.63
2023-04-02T09:00:13.601Z,32.11
2023-04-02T09:01:13.565Z,34.01
2023-04-02T09:02:13.494Z,31.87
2023-04-02T09:03:13.399Z,27.73
2023-04-02T09:04:13.372Z,28.77
2023-04-02T09:05:13.295Z,28.20
2023-04-02T09:06:14.777Z,27.93
2023-04-02T09:07:13.172Z,31.85
2023-04-02T09:08:13.107Z,29.70
2023-04-02T09:09:13.046Z,34.66
2023-04-02T09:10:12.993Z,38.03
2023-04-02T09:11:12.931Z,36.66
2023-04-02T09:12:12.878Z,36.06
2023-04-02T09:13:12.817Z,27.05
2023-04-02T09:14:12.737Z,30.79
2023-04-02T09:15:12.682Z,30.31
2023-04-02T09:16:12.625Z,25.00
2023-04-02T09:17:12.593Z,25.78
2023-04-02T09:18:12.524Z,33.91
2023-04-02T09:19:12.451Z,27.95
2023-04-02T09:20:12.383Z,31.06
2023-04-02T09:21:12.318Z,26.10
2023-04-02T09:22:12.320Z,25.03
2023-04-02T09:23:12.203Z,28.00
2023-04-02T09:24:12.166Z,25.00
2023-04-02T09:25:12.120Z,29.48
2023-04-02T09:26:12.048Z,35.65
2023-04-02T09:27:12.016Z,25.00
2023-04-02T09:28:11.953Z,32.69
2023-04-02T09:29:11.883Z,32.52
2023-04-02T09:30:11.894Z,29.66
2023-04-02T09:31:12.000Z,35.28
2023-04-02T09:32:11.717Z,30.64
2023-04-02T09:33:11.679Z,31.04
2023-04-02T09:34:11.622Z,32.91
2023-04-02T09:35:22.450Z,35.00
2023-04-02T09:36:13.947Z,31.08
2023-04-02T09:37:11.445Z,27.53
2023-04-02T09:38:11.388Z,24.99
2023-04-02T09:39:11.363Z,19.20
2023-04-02T09:40:11.293Z,22.43
2023-04-02T09:41:11.223Z,18.64
2023-04-02T09:42:11.167Z,25.00
2023-04-02T09:43:11.123Z,25.25
2023-04-02T09:44:11.052Z,30.03
2023-04-02T09:45:10.990Z,33.30
2023-04-02T09:46:11.004Z,25.60
2023-04-02T09:47:10.890Z,29.89
2023-04-02T09:48:10.841Z,25.10
2023-04-02T09:49:10.789Z,25.16
2023-04-02T09:50:10.724Z,23.96
2023-04-02T09:51:10.663Z,24.49
2023-04-02T09:52:10.637Z,17.82
2023-04-02T09:53:10.560Z,15.68
2023-04-02T09:54:10.523Z,32.66
2023-04-02T09:55:10.461Z,23.48
2023-04-02T09:56:10.415Z,26.85
2023-04-02T09:57:10.387Z,25.31
2023-04-02T09:58:10.325Z,30.76
2023-04-02T09:59:10.234Z,25.00
2023-04-02T10:00:14.643Z,35.35
2023-04-02T10:01:11.141Z,35.71
2023-04-02T10:02:10.094Z,38.42
2023-04-02T10:03:10.021Z,43.82
2023-04-02T10:04:09.970Z,51.07
2023-04-02T10:05:09.898Z,65.87
2023-04-02T10:06:09.833Z,70.12
2023-04-02T10:07:09.798Z,75.70
2023-04-02T10:08:09.726Z,65.64
2023-04-02T10:09:09.664Z,68.11
2023-04-02T10:10:09.679Z,73.76
2023-04-02T10:11:09.569Z,75.43
2023-04-02T10:12:09.512Z,74.61
2023-04-02T10:13:09.431Z,74.15
2023-04-02T10:14:09.397Z,73.16
2023-04-02T10:15:09.330Z,70.68
2023-04-02T10:16:09.367Z,73.24
2023-04-02T10:17:09.229Z,69.10
2023-04-02T10:18:09.166Z,66.57
2023-04-02T10:19:09.102Z,67.39
2023-04-02T10:20:09.035Z,60.53
2023-04-02T10:21:08.965Z,69.87
2023-04-02T10:22:08.922Z,71.72
2023-04-02T10:23:08.861Z,71.23
2023-04-02T10:24:08.793Z,73.35
2023-04-02T10:25:08.732Z,74.84
2023-04-02T10:26:08.664Z,67.37
2023-04-02T10:27:08.605Z,70.97
2023-04-02T10:28:08.533Z,69.64
2023-04-02T10:29:08.493Z,61.42
2023-04-02T10:30:08.436Z,65.68
2023-04-02T10:31:08.433Z,68.67
2023-04-02T10:32:08.302Z,67.56
2023-04-02T10:33:08.279Z,69.91
2023-04-02T10:34:08.184Z,73.46
2023-04-02T10:35:08.107Z,72.38
2023-04-02T10:36:08.151Z,76.04
2023-04-02T10:37:07.984Z,77.23
2023-04-02T10:38:07.929Z,77.19
2023-04-02T10:39:07.873Z,77.70
2023-04-02T10:40:07.803Z,76.91
2023-04-02T10:41:07.724Z,77.20
2023-04-02T10:42:07.671Z,70.69
2023-04-02T10:43:07.602Z,76.00
2023-04-02T10:44:17.106Z,78.65
2023-04-02T10:45:08.480Z,76.76
2023-04-02T10:46:07.452Z,75.60
2023-04-02T10:47:07.355Z,76.81
2023-04-02T10:48:07.319Z,75.21
2023-04-02T10:49:07.271Z,70.98
2023-04-02T10:50:07.197Z,73.93
2023-04-02T10:51:07.123Z,73.86
2023-04-02T10:52:07.084Z,75.87
2023-04-02T10:53:07.020Z,76.76
2023-04-02T10:54:06.966Z,78.15
2023-04-02T10:55:06.924Z,79.98
2023-04-02T10:56:06.846Z,77.33
2023-04-02T10:57:06.826Z,80.53
2023-04-02T10:58:06.722Z,80.07
2023-04-02T10:59:06.674Z,78.36
2023-04-02T11:00:06.628Z,76.30
2023-04-02T11:01:06.637Z,77.64
2023-04-02T11:02:06.576Z,77.42
2023-04-02T11:03:06.529Z,78.20
2023-04-02T11:04:06.387Z,78.99
2023-04-02T11:05:06.339Z,77.68
2023-04-02T11:06:06.284Z,70.88
2023-04-02T11:07:13.711Z,72.75
2023-04-02T11:08:07.165Z,72.83
2023-04-02T11:09:06.097Z,73.57
2023-04-02T11:10:06.112Z,71.31
2023-04-02T11:11:05.997Z,63.31
2023-04-02T11:12:05.925Z,69.34
2023-04-02T11:13:05.864Z,73.47
2023-04-02T11:14:05.820Z,72.01
2023-04-02T11:15:05.794Z,77.89
2023-04-02T11:16:05.735Z,78.29
2023-04-02T11:17:05.632Z,73.37
2023-04-02T11:18:05.620Z,77.31
2023-04-02T11:19:05.513Z,78.49
2023-04-02T11:20:05.462Z,81.09
2023-04-02T11:21:05.415Z,76.92
2023-04-02T11:22:06.909Z,72.94
2023-04-02T11:23:05.259Z,72.64
2023-04-02T11:24:05.198Z,75.53
2023-04-02T11:25:05.198Z,77.42
2023-04-02T11:26:05.094Z,79.57
2023-04-02T11:27:05.020Z,79.67
2023-04-02T11:28:04.948Z,79.10
2023-04-02T11:29:04.880Z,77.64
2023-04-02T11:30:04.821Z,81.64
2023-04-02T11:31:04.787Z,81.00
2023-04-02T11:32:04.702Z,80.37
2023-04-02T11:33:04.641Z,81.08
2023-04-02T11:34:04.588Z,85.31
2023-04-02T11:35:07.569Z,83.20
2023-04-02T11:36:04.478Z,80.68
2023-04-02T11:37:04.397Z,83.38
2023-04-02T11:38:04.371Z,82.99
2023-04-02T11:39:14.611Z,80.94
2023-04-02T11:40:04.223Z,80.86
2023-04-02T11:41:04.161Z,78.20
2023-04-02T11:42:04.102Z,82.60
2023-04-02T11:43:04.035Z,84.85
2023-04-02T11:44:03.989Z,85.99
2023-04-02T11:45:03.929Z,87.17
2023-04-02T11:46:03.871Z,86.22
2023-04-02T11:47:03.807Z,84.14
2023-04-02T11:48:03.838Z,88.16
2023-04-02T11:49:03.693Z,86.64
2023-04-02T11:50:03.647Z,89.41
2023-04-02T11:51:03.577Z,86.99
2023-04-02T11:52:12.124Z,86.18
2023-04-02T11:53:04.463Z,86.30
2023-04-02T11:54:03.411Z,86.47
2023-04-02T11:55:03.349Z,88.01
2023-04-02T11:56:03.295Z,88.76
2023-04-02T11:57:03.247Z,89.40
2023-04-02T11:58:03.192Z,89.74
2023-04-02T11:59:03.120Z,90.04
2023-04-02T12:00:03.070Z,88.79
2023-04-02T12:01:03.393Z,88.24
2023-04-02T12:02:03.017Z,82.59
2023-04-02T12:03:03.007Z,82.77
2023-04-02T12:04:02.889Z,84.86
2023-04-02T12:05:02.804Z,84.27
2023-04-02T12:06:04.185Z,80.80
2023-04-02T12:07:02.688Z,86.12
2023-04-02T12:08:02.634Z,79.95
2023-04-02T12:09:02.587Z,79.31
2023-04-02T12:10:02.504Z,69.45
2023-04-02T12:11:02.460Z,70.00
2023-04-02T12:12:02.390Z,53.55
2023-04-02T12:13:02.341Z,36.06
2023-04-02T12:14:02.293Z,28.73
2023-04-02T12:15:02.275Z,30.56
2023-04-02T12:16:02.185Z,18.80
2023-04-02T12:17:02.160Z,31.96
2023-04-02T12:18:02.132Z,42.79
2023-04-02T12:19:02.060Z,48.31
2023-04-02T12:20:03.582Z,45.20
2023-04-02T12:21:01.956Z,46.03
2023-04-02T12:22:01.914Z,45.42
2023-04-02T12:23:01.851Z,52.12
2023-04-02T12:24:01.862Z,54.45
2023-04-02T12:25:01.727Z,48.57
2023-04-02T12:26:01.683Z,43.59
2023-04-02T12:27:01.594Z,40.19
2023-04-02T12:28:01.548Z,47.51
2023-04-02T12:29:01.493Z,54.70
2023-04-02T12:30:01.449Z,57.59
2023-04-02T12:31:01.430Z,55.80
2023-04-02T12:32:01.323Z,55.82
2023-04-02T12:33:01.303Z,56.51
2023-04-02T12:34:01.232Z,56.34
2023-04-02T12:35:01.157Z,53.32
2023-04-02T12:36:01.167Z,56.01
2023-04-02T12:37:01.139Z,56.02
2023-04-02T12:38:01.014Z,58.84